This is the latest recevied weather packets stored in our database for station/object KO4IEJ. If no packets are shown the sender has not sent any weather packets the latest 10 day(s).
| Time | Temp. | Humidity | Pressure | Rain* | Wind** | Luminosity | Snow |
|---|---|---|---|---|---|---|---|
| 1777891558 | 5° C | 63% | 1016.2 hPa | 0 mm | - | - | - |
| 1777890661 | 6.11° C | 61% | 1016 hPa | 0 mm | - | - | - |
| 1777889756 | 6.11° C | 62% | 1016.3 hPa | 0 mm | - | - | - |
| 1777876253 | 3.89° C | 60% | 1017.9 hPa | 0 mm | - | - | - |
| 1777875355 | 4.44° C | 57% | 1018 hPa | 0 mm | - | - | - |
| 1777873559 | 5° C | 55% | 1018.2 hPa | 0 mm | - | - | - |
| 1777870858 | 5.56° C | 54% | 1018.1 hPa | 0 mm | - | - | - |
| 1777864550 | 9.44° C | 40% | 1018.2 hPa | 0 mm | - | - | - |
| 1777862754 | 9.44° C | 40% | 1018.1 hPa | 0 mm | - | - | - |
| 1777860954 | 10.56° C | 39% | 1018.1 hPa | 0 mm | - | - | - |
| 1777859162 | 11.11° C | 35% | 1017.8 hPa | 0 mm | - | - | - |
| 1777851953 | 14.44° C | 28% | 1017.8 hPa | 0 mm | - | - | - |
| 1777850150 | 15.56° C | 24% | 1017.6 hPa | 0 mm | - | - | - |
| 1777847453 | 15° C | 25% | 1017.8 hPa | 0 mm | - | - | - |
| 1777832168 | 13.89° C | 28% | 1022 hPa | 0 mm | - | - | - |
| 1777831256 | 13.33° C | 27% | 1022.3 hPa | 0 mm | - | - | - |
| 1777830353 | 12.78° C | 32% | 1022.5 hPa | 0 mm | - | - | - |
| 1777829459 | 13.33° C | 29% | 1022.6 hPa | 0 mm | - | - | - |
| 1777824059 | 12.78° C | 32% | 1022.9 hPa | 0 mm | - | - | - |
| 1777822255 | 12.22° C | 34% | 1022.9 hPa | 0 mm | - | - | - |
| 1777816853 | 8.33° C | 47% | 1023.4 hPa | 0 mm | - | - | - |
| 1777815064 | 7.22° C | 49% | 1023.4 hPa | 0 mm | - | - | - |
| 1777810565 | 1.67° C | 64% | 1022.6 hPa | 0 mm | - | - | - |
| 1777808774 | 3.33° C | 56% | 1022.5 hPa | 0 mm | - | - | - |
| 1777807860 | 5.56° C | 44% | 1022.5 hPa | 0 mm | - | - | - |
* Rain latest hour (hover to see other rain measurements)
** Current wind speed in m/s (hover to see current wind gust speed)